createdAt,value
2023-01-27T00:02:04.909Z,13.18
2023-01-27T00:07:06.565Z,13.23
2023-01-27T00:12:38.048Z,13.52
2023-01-27T00:17:39.847Z,13.70
2023-01-27T00:23:00.432Z,13.85
2023-01-27T00:28:05.813Z,15.05
2023-01-27T00:33:26.138Z,17.08
2023-01-27T00:38:29.387Z,16.40
2023-01-27T00:43:30.985Z,15.00
2023-01-27T00:48:32.768Z,17.90
2023-01-27T00:53:34.358Z,15.75
2023-01-27T00:58:36.287Z,18.10
2023-01-27T01:03:37.944Z,18.40
2023-01-27T01:08:39.775Z,17.65
2023-01-27T01:13:42.833Z,17.42
2023-01-27T01:18:44.550Z,16.48
2023-01-27T01:23:46.593Z,21.20
2023-01-27T01:28:48.243Z,21.05
2023-01-27T01:33:49.896Z,20.45
2023-01-27T01:38:56.664Z,18.80
2023-01-27T01:43:58.509Z,20.98
2023-01-27T01:49:03.203Z,28.60
2023-01-27T01:54:13.982Z,23.25
2023-01-27T01:59:22.451Z,21.20
2023-01-27T02:04:28.161Z,19.73
2023-01-27T02:09:29.864Z,21.10
2023-01-27T02:14:31.841Z,23.95
2023-01-27T02:19:58.601Z,25.95
2023-01-27T02:25:09.790Z,20.73
2023-01-27T02:35:16.920Z,23.80
2023-01-27T02:40:19.113Z,22.35
2023-01-27T02:45:20.684Z,23.55
2023-01-27T02:50:22.290Z,31.65
2023-01-27T02:55:23.888Z,24.45
2023-01-27T03:00:25.484Z,27.30
2023-01-27T03:05:27.860Z,28.85
2023-01-27T03:10:29.667Z,23.80
2023-01-27T03:15:49.826Z,25.23
2023-01-27T03:20:51.463Z,28.92
2023-01-27T03:25:53.161Z,26.50
2023-01-27T03:31:08.536Z,28.23
2023-01-27T03:36:29.088Z,21.60
2023-01-27T03:41:49.325Z,25.17
2023-01-27T03:46:50.977Z,28.63
2023-01-27T03:51:52.567Z,27.63
2023-01-27T03:56:54.168Z,27.45
2023-01-27T04:02:14.138Z,28.00
2023-01-27T04:07:19.972Z,25.77
2023-01-27T04:12:21.651Z,30.25
2023-01-27T04:17:23.253Z,28.08
2023-01-27T04:22:24.845Z,28.13
2023-01-27T04:27:27.322Z,27.88
2023-01-27T04:32:30.746Z,27.00
2023-01-27T04:37:33.124Z,27.20
2023-01-27T04:42:34.698Z,27.85
2023-01-27T04:47:36.306Z,25.42
2023-01-27T04:52:37.912Z,29.15
2023-01-27T04:57:39.557Z,26.00
2023-01-27T05:02:41.187Z,22.25
2023-01-27T05:07:42.884Z,24.20
2023-01-27T05:12:44.499Z,23.85
2023-01-27T05:17:46.148Z,25.58
2023-01-27T05:22:47.745Z,22.60
2023-01-27T05:27:49.329Z,23.90
2023-01-27T05:32:50.924Z,20.80
2023-01-27T05:37:52.517Z,22.02
2023-01-27T05:42:54.500Z,22.52
2023-01-27T05:47:56.107Z,20.75
2023-01-27T05:52:57.679Z,19.13
2023-01-27T05:57:59.311Z,18.25
2023-01-27T06:03:00.939Z,18.20
2023-01-27T06:08:02.591Z,17.77
2023-01-27T06:13:04.263Z,19.55
2023-01-27T06:18:05.881Z,16.98
2023-01-27T06:23:10.373Z,17.73
2023-01-27T06:28:27.878Z,20.75
2023-01-27T06:33:30.111Z,16.27
2023-01-27T06:38:31.946Z,20.95
2023-01-27T06:43:33.566Z,18.67
2023-01-27T06:48:35.647Z,19.02
2023-01-27T06:53:38.797Z,19.88
2023-01-27T06:58:40.512Z,23.00
2023-01-27T07:03:44.447Z,18.88
2023-01-27T07:08:47.509Z,16.58
2023-01-27T07:13:49.095Z,14.45
2023-01-27T07:18:50.712Z,14.27
2023-01-27T07:23:52.371Z,18.63
2023-01-27T07:28:56.386Z,19.38
2023-01-27T07:33:57.975Z,17.05
2023-01-27T07:38:59.630Z,18.42
2023-01-27T07:44:01.233Z,19.25
2023-01-27T07:49:02.819Z,18.45
2023-01-27T07:54:05.279Z,18.05
2023-01-27T07:59:07.240Z,16.80
2023-01-27T08:04:09.100Z,15.90
2023-01-27T08:09:10.832Z,16.27
2023-01-27T08:14:12.432Z,18.67
2023-01-27T08:19:14.159Z,21.00
2023-01-27T08:24:15.941Z,19.52
2023-01-27T08:29:17.907Z,22.38
2023-01-27T08:34:19.503Z,19.92
2023-01-27T08:39:21.119Z,15.30
2023-01-27T08:44:22.808Z,15.05
2023-01-27T08:49:24.372Z,13.40
2023-01-27T08:54:26.452Z,14.30
2023-01-27T08:59:28.101Z,15.32
2023-01-27T09:04:31.093Z,17.70
2023-01-27T09:09:32.716Z,17.42
2023-01-27T09:14:34.383Z,11.35
2023-01-27T09:19:36.128Z,16.10
2023-01-27T09:24:37.700Z,16.50
2023-01-27T09:29:39.664Z,20.55
2023-01-27T09:34:41.390Z,19.35
2023-01-27T09:39:59.342Z,16.45
2023-01-27T09:45:24.971Z,15.63
2023-01-27T09:51:09.050Z,17.55
2023-01-27T09:56:32.139Z,18.45
2023-01-27T10:01:33.712Z,12.32
2023-01-27T10:06:39.331Z,13.80
2023-01-27T10:12:07.526Z,10.60
2023-01-27T10:17:13.442Z,10.45
2023-01-27T10:22:38.253Z,7.10
2023-01-27T10:27:46.972Z,7.20
2023-01-27T10:33:15.146Z,8.20
2023-01-27T10:38:41.983Z,6.32
2023-01-27T10:43:55.711Z,5.38
2023-01-27T10:49:27.469Z,4.25
2023-01-27T10:54:48.937Z,3.97
2023-01-27T11:00:36.942Z,3.85
2023-01-27T11:05:42.310Z,3.80
2023-01-27T11:11:07.356Z,4.53
2023-01-27T11:16:17.793Z,3.97
2023-01-27T11:21:22.361Z,4.30
2023-01-27T11:26:52.643Z,3.60
2023-01-27T11:31:58.671Z,2.88
2023-01-27T11:37:08.704Z,3.58
2023-01-27T11:42:11.895Z,3.90
2023-01-27T11:47:28.983Z,2.92
2023-01-27T11:52:31.729Z,2.92
2023-01-27T11:57:35.809Z,3.60
2023-01-27T12:02:53.178Z,3.22
2023-01-27T12:07:56.952Z,2.85
2023-01-27T12:13:02.027Z,3.13
2023-01-27T12:18:12.087Z,2.40
2023-01-27T12:23:40.119Z,2.50
2023-01-27T12:28:41.672Z,2.78
2023-01-27T12:33:46.899Z,2.83
2023-01-27T12:39:00.328Z,2.55
2023-01-27T12:44:16.435Z,2.50
2023-01-27T12:49:21.395Z,2.60
2023-01-27T12:54:24.587Z,2.50
2023-01-27T12:59:26.825Z,2.50
2023-01-27T13:04:29.526Z,2.72
2023-01-27T13:09:36.415Z,2.70
2023-01-27T13:14:41.801Z,3.05
2023-01-27T13:19:46.953Z,2.88
2023-01-27T13:24:53.435Z,2.70
2023-01-27T13:30:02.646Z,2.80
2023-01-27T13:35:10.621Z,2.83
2023-01-27T13:40:29.112Z,2.97
2023-01-27T13:45:38.602Z,2.88
2023-01-27T13:50:47.759Z,2.50
2023-01-27T13:56:19.458Z,2.00
2023-01-27T14:01:43.920Z,2.08
2023-01-27T14:06:51.639Z,2.05
2023-01-27T14:12:04.265Z,2.10
2023-01-27T14:17:33.152Z,2.10
2023-01-27T14:22:50.347Z,1.88
2023-01-27T14:28:19.648Z,1.90
2023-01-27T14:33:30.102Z,1.70
2023-01-27T14:38:51.456Z,1.90
2023-01-27T14:44:43.509Z,2.00
2023-01-27T14:50:16.530Z,2.05
2023-01-27T14:55:20.903Z,2.10
2023-01-27T15:00:53.561Z,1.70
2023-01-27T15:06:21.806Z,1.55
2023-01-27T15:11:37.292Z,1.75
2023-01-27T15:16:51.137Z,1.60
2023-01-27T15:21:52.676Z,1.75
2023-01-27T15:26:55.060Z,1.70
2023-01-27T15:32:17.829Z,1.40
2023-01-27T15:37:28.422Z,1.60
2023-01-27T15:42:55.599Z,1.80
2023-01-27T15:48:01.662Z,2.00
2023-01-27T15:53:13.881Z,1.77
2023-01-27T15:58:57.161Z,2.22
2023-01-27T16:04:15.516Z,2.20
2023-01-27T16:09:30.749Z,2.42
2023-01-27T16:14:35.326Z,2.30
2023-01-27T16:19:49.323Z,2.90
2023-01-27T16:25:17.664Z,2.28
2023-01-27T16:30:22.973Z,2.30
2023-01-27T16:35:25.975Z,2.35
2023-01-27T16:40:29.300Z,2.67
2023-01-27T16:45:42.426Z,3.00
2023-01-27T16:50:44.471Z,3.50
2023-01-27T16:56:01.352Z,3.90
2023-01-27T17:01:03.522Z,3.65
2023-01-27T17:06:08.905Z,3.85
2023-01-27T17:11:17.990Z,3.95
2023-01-27T17:16:57.188Z,3.70
2023-01-27T17:22:04.345Z,3.60
2023-01-27T17:27:14.153Z,5.93
2023-01-27T17:32:29.432Z,3.20
2023-01-27T17:37:32.296Z,3.70
2023-01-27T17:42:34.207Z,2.97
2023-01-27T17:47:35.913Z,3.20
2023-01-27T17:52:43.037Z,3.50
2023-01-27T17:57:54.511Z,4.00
2023-01-27T18:03:14.020Z,3.70
2023-01-27T18:08:15.730Z,3.60
2023-01-27T18:13:20.090Z,3.80
2023-01-27T18:18:30.117Z,3.90
2023-01-27T18:23:38.308Z,3.65
2023-01-27T18:28:43.039Z,3.67
2023-01-27T18:33:46.434Z,3.72
2023-01-27T18:38:49.918Z,4.35
2023-01-27T18:43:52.402Z,4.53
2023-01-27T18:48:55.542Z,4.20
2023-01-27T18:53:57.168Z,4.60
2023-01-27T18:58:58.884Z,4.60
2023-01-27T19:04:00.923Z,4.30
2023-01-27T19:09:04.717Z,4.10
2023-01-27T19:14:06.307Z,4.40
2023-01-27T19:19:10.993Z,4.60
2023-01-27T19:24:12.765Z,4.57
2023-01-27T19:29:14.429Z,4.53
2023-01-27T19:34:16.013Z,4.65
2023-01-27T19:39:19.888Z,3.72
2023-01-27T19:44:21.534Z,3.40
2023-01-27T19:49:23.113Z,3.25
2023-01-27T19:54:24.767Z,3.63
2023-01-27T19:59:26.409Z,3.20
2023-01-27T20:04:28.060Z,3.00
2023-01-27T20:09:29.642Z,3.03
2023-01-27T20:14:31.810Z,3.20
2023-01-27T20:19:33.407Z,3.20
2023-01-27T20:24:35.176Z,2.72
2023-01-27T20:29:37.318Z,2.70
2023-01-27T20:34:40.527Z,2.80
2023-01-27T20:39:42.116Z,2.80
2023-01-27T20:44:43.707Z,3.03
2023-01-27T20:49:45.385Z,3.78
2023-01-27T20:54:46.994Z,3.58
2023-01-27T20:59:49.249Z,3.38
2023-01-27T21:04:50.807Z,3.33
2023-01-27T21:09:53.649Z,3.42
2023-01-27T21:14:56.179Z,2.63
2023-01-27T21:19:57.768Z,2.90
2023-01-27T21:24:59.348Z,3.33
2023-01-27T21:30:00.961Z,2.95
2023-01-27T21:35:03.462Z,2.97
2023-01-27T21:40:05.447Z,3.60
2023-01-27T21:45:15.780Z,3.20
2023-01-27T21:50:17.981Z,3.50
2023-01-27T21:55:26.120Z,3.13
2023-01-27T22:00:28.684Z,2.70
2023-01-27T22:05:32.527Z,3.00
2023-01-27T22:10:34.809Z,2.90
2023-01-27T22:15:36.404Z,2.90
2023-01-27T22:20:38.187Z,3.25
2023-01-27T22:25:39.802Z,3.17
2023-01-27T22:30:41.448Z,3.42
2023-01-27T22:35:43.081Z,3.45
2023-01-27T22:40:44.685Z,3.50
2023-01-27T22:45:46.278Z,3.60
2023-01-27T22:50:47.891Z,3.10
2023-01-27T22:56:00.091Z,3.30
2023-01-27T23:01:05.686Z,3.60
2023-01-27T23:06:08.560Z,3.42
2023-01-27T23:11:10.499Z,3.05
2023-01-27T23:16:12.103Z,3.03
2023-01-27T23:21:14.083Z,2.80
2023-01-27T23:26:15.694Z,3.05
2023-01-27T23:31:17.394Z,2.75
2023-01-27T23:36:19.121Z,2.80
2023-01-27T23:41:21.749Z,2.88
2023-01-27T23:46:26.707Z,2.80
2023-01-27T23:51:28.363Z,3.00
2023-01-27T23:56:29.967Z,2.92
